Time;durP1;ratioP1;P1;durP2;ratioP2;P2;SDS_P1;SDS_P2;PMS_P1;PMS_P2;Temp;Humidity;BMP_temperature;BMP_pressure;BME280_temperature;BME280_humidity;BME280_pressure;Samples;Min_cycle;Max_cycle;Signal;HPM_P1;HPM_P2
2021/03/28 00:01:47;;;;;;;21.97;4.83;;;7.90;99.90;;;;;;1889349;74;21163;-74
2021/03/28 00:04:16;;;;;;;25.68;5.35;;;7.90;99.90;;;;;;1881256;74;21184;-74
2021/03/28 00:06:50;;;;;;;22.25;5.05;;;7.90;99.90;;;;;;1880008;74;21094;-74
2021/03/28 00:09:29;;;;;;;19.37;4.55;;;7.90;99.90;;;;;;1884784;74;21114;-73
2021/03/28 00:12:06;;;;;;;28.02;5.35;;;7.90;99.90;;;;;;1882239;74;21775;-74
2021/03/28 00:14:45;;;;;;;21.05;5.40;;;8.00;99.90;;;;;;1888802;74;21129;-73
2021/03/28 00:17:30;;;;;;;19.32;5.05;;;8.00;99.90;;;;;;1889847;74;21386;-73
2021/03/28 00:20:12;;;;;;;29.45;5.25;;;8.00;99.90;;;;;;1895503;74;21234;-73
2021/03/28 00:22:45;;;;;;;17.85;4.80;;;7.90;99.90;;;;;;1888095;74;21658;-73
2021/03/28 00:25:19;;;;;;;25.80;4.58;;;7.80;99.90;;;;;;1890276;74;21120;-74
2021/03/28 00:27:50;;;;;;;23.10;5.25;;;7.80;99.90;;;;;;1888792;74;21678;-74
2021/03/28 00:30:23;;;;;;;15.53;4.65;;;7.80;99.90;;;;;;1891119;74;21490;-73
2021/03/28 00:33:13;;;;;;;24.30;4.87;;;7.80;99.90;;;;;;1892911;74;21155;-73
2021/03/28 00:35:57;;;;;;;21.37;5.62;;;7.80;99.90;;;;;;1883268;74;21681;-75
2021/03/28 00:38:40;;;;;;;24.82;5.25;;;7.80;99.90;;;;;;1890415;74;21298;-74
2021/03/28 00:41:13;;;;;;;19.32;5.35;;;7.80;99.90;;;;;;1887096;74;21511;-74
2021/03/28 00:43:47;;;;;;;26.80;5.67;;;7.80;99.90;;;;;;1886703;74;21290;-73
2021/03/28 00:46:35;;;;;;;23.75;4.92;;;7.70;99.90;;;;;;1884282;74;21172;-74
2021/03/28 00:49:05;;;;;;;22.60;5.65;;;7.70;99.90;;;;;;1887671;74;21192;-73
2021/03/28 00:51:35;;;;;;;19.77;4.90;;;7.70;99.90;;;;;;1893550;74;21101;-73
2021/03/28 00:54:14;;;;;;;20.77;5.45;;;7.80;99.90;;;;;;1889401;74;21312;-73
2021/03/28 00:56:48;;;;;;;21.10;5.10;;;7.90;99.90;;;;;;1881550;74;22214;-73
2021/03/28 00:59:25;;;;;;;24.92;6.12;;;7.90;99.90;;;;;;1883321;74;21212;-74
2021/03/28 01:02:08;;;;;;;20.45;5.40;;;7.80;99.90;;;;;;1890825;74;22478;-75
2021/03/28 01:04:42;;;;;;;22.65;5.12;;;7.80;99.90;;;;;;1886769;74;21081;-74
2021/03/28 01:07:40;;;;;;;20.72;5.58;;;7.90;99.90;;;;;;1883193;74;21930;-74
2021/03/28 01:10:40;;;;;;;22.42;5.72;;;7.80;99.90;;;;;;1886934;74;21126;-73
2021/03/28 01:13:30;;;;;;;22.20;4.87;;;7.90;99.90;;;;;;1882853;74;21062;-73
2021/03/28 01:16:37;;;;;;;17.70;4.67;;;7.80;99.90;;;;;;1883889;74;21105;-74
2021/03/28 01:19:11;;;;;;;18.95;4.90;;;7.90;99.90;;;;;;1886173;74;21666;-74
2021/03/28 01:21:44;;;;;;;26.50;5.70;;;7.80;99.90;;;;;;1884643;74;21046;-75
2021/03/28 01:24:17;;;;;;;18.20;5.55;;;7.80;99.90;;;;;;1889576;74;21396;-75
2021/03/28 01:27:15;;;;;;;19.47;5.10;;;7.80;99.90;;;;;;1881200;74;21113;-74
2021/03/28 01:29:48;;;;;;;17.27;5.22;;;7.80;99.90;;;;;;1887221;74;21168;-75
2021/03/28 01:32:37;;;;;;;22.22;5.47;;;7.80;99.90;;;;;;1882653;74;21651;-73
2021/03/28 01:35:14;;;;;;;27.13;5.60;;;7.70;99.90;;;;;;1880686;74;21152;-74
2021/03/28 01:38:12;;;;;;;28.07;5.58;;;7.70;99.90;;;;;;1887856;74;21094;-73
2021/03/28 01:40:45;;;;;;;22.62;6.08;;;7.70;99.90;;;;;;1879951;74;21697;-73
2021/03/28 01:43:25;;;;;;;16.15;4.97;;;7.80;99.90;;;;;;1904204;72;21198;-78
2021/03/28 01:46:12;;;;;;;25.08;5.95;;;8.00;99.90;;;;;;1927211;74;21246;-77
2021/03/28 01:48:54;;;;;;;28.87;5.90;;;7.90;99.90;;;;;;1924339;74;21671;-78
2021/03/28 01:51:39;;;;;;;;;;;7.60;99.90;;;;;;1933021;74;21149;-79
2021/03/28 01:54:26;;;;;;;20.62;5.67;;;7.60;99.90;;;;;;1899619;74;20176;-77
2021/03/28 01:57:19;;;;;;;21.40;5.37;;;7.70;99.90;;;;;;1894310;75;21144;-76
2021/03/28 02:00:08;;;;;;;20.85;5.28;;;7.80;99.90;;;;;;1897446;75;21119;-76
2021/03/28 02:02:41;;;;;;;21.30;5.05;;;7.90;99.90;;;;;;1898563;74;21593;-76
2021/03/28 02:05:15;;;;;;;21.95;5.70;;;7.90;99.90;;;;;;1894622;75;21167;-76
2021/03/28 02:07:58;;;;;;;19.23;5.65;;;7.90;99.90;;;;;;1902845;75;21103;-75
2021/03/28 02:10:43;;;;;;;18.30;5.30;;;7.90;99.90;;;;;;1897204;73;21249;-76
2021/03/28 02:13:17;;;;;;;19.45;5.00;;;7.90;99.90;;;;;;1900430;74;21596;-75
2021/03/28 02:15:50;;;;;;;20.82;4.47;;;7.80;99.90;;;;;;1897860;75;21044;-76
2021/03/28 02:18:21;;;;;;;18.50;4.92;;;7.80;99.90;;;;;;1900763;75;21074;-77
2021/03/28 02:20:51;;;;;;;26.02;5.70;;;7.80;99.90;;;;;;1898770;75;21113;-76
2021/03/28 02:23:37;;;;;;;22.48;5.75;;;7.70;99.90;;;;;;1897994;74;21111;-77
2021/03/28 02:26:26;;;;;;;21.52;5.30;;;7.70;99.90;;;;;;1902967;75;21052;-77
2021/03/28 02:28:59;;;;;;;18.87;5.25;;;7.70;99.90;;;;;;1898667;75;21196;-77
2021/03/28 02:31:48;;;;;;;21.60;5.58;;;7.70;99.90;;;;;;1896047;75;21573;-80
2021/03/28 02:34:39;;;;;;;20.60;4.83;;;7.80;99.90;;;;;;1898897;74;21176;-78
2021/03/28 02:37:10;;;;;;;17.25;5.60;;;7.90;99.90;;;;;;1898756;75;21140;-79
2021/03/28 02:39:49;;;;;;;22.90;5.42;;;7.80;99.90;;;;;;1898944;75;21062;-79
2021/03/28 02:42:20;;;;;;;21.85;5.47;;;7.90;99.90;;;;;;1882353;74;21556;-78
2021/03/28 02:44:53;;;;;;;21.23;4.45;;;7.90;99.90;;;;;;1897427;74;21071;-78
2021/03/28 02:47:41;;;;;;;22.95;5.08;;;7.80;99.90;;;;;;1893301;75;21094;-78
2021/03/28 02:50:31;;;;;;;21.77;5.03;;;7.70;99.90;;;;;;1899368;75;22249;-79
2021/03/28 02:53:07;;;;;;;20.77;5.70;;;7.80;99.90;;;;;;1895234;75;21221;-79
2021/03/28 02:55:49;;;;;;;25.23;5.08;;;7.80;99.90;;;;;;1894643;75;21087;-80
2021/03/28 02:58:36;;;;;;;20.02;4.55;;;7.70;99.90;;;;;;1892984;74;21091;-78
2021/03/28 03:01:25;;;;;;;24.70;5.30;;;7.70;99.90;;;;;;1896692;75;21179;-79
2021/03/28 03:04:07;;;;;;;19.73;5.87;;;7.70;99.90;;;;;;1896221;74;21126;-79
2021/03/28 03:06:46;;;;;;;23.00;5.65;;;7.60;99.90;;;;;;1893369;75;21164;-80
2021/03/28 03:09:35;;;;;;;22.17;5.45;;;7.50;99.90;;;;;;1890578;74;21213;-78
2021/03/28 03:12:18;;;;;;;19.48;5.25;;;7.60;99.90;;;;;;1900834;74;21125;-77
2021/03/28 03:14:57;;;;;;;22.30;5.50;;;7.60;99.90;;;;;;1913336;74;21140;-77
2021/03/28 03:17:56;;;;;;;22.80;6.58;;;7.60;99.90;;;;;;1916044;74;21062;-77
2021/03/28 03:20:47;;;;;;;14.28;4.90;;;7.70;99.90;;;;;;1908775;74;21503;-77
2021/03/28 03:23:29;;;;;;;22.17;5.67;;;7.60;99.90;;;;;;1914087;74;21206;-77
2021/03/28 03:26:25;;;;;;;20.62;5.12;;;7.60;99.90;;;;;;1912766;74;21123;-78
2021/03/28 03:28:59;;;;;;;21.68;5.40;;;7.70;99.90;;;;;;1915982;74;21222;-77
2021/03/28 03:31:53;;;;;;;26.68;6.03;;;7.60;99.90;;;;;;1913647;74;21582;-78
2021/03/28 03:34:30;;;;;;;27.52;5.45;;;7.60;99.90;;;;;;1913960;74;21590;-77
2021/03/28 03:37:00;;;;;;;19.17;5.22;;;7.60;99.90;;;;;;1910223;74;21461;-77
2021/03/28 03:39:52;;;;;;;15.85;5.08;;;7.60;99.90;;;;;;1911645;74;21497;-78
2021/03/28 03:42:38;;;;;;;13.55;4.70;;;7.70;99.90;;;;;;1912445;73;21033;-77
2021/03/28 03:45:17;;;;;;;20.08;4.85;;;7.70;99.90;;;;;;1912169;73;21496;-76
2021/03/28 03:48:04;;;;;;;17.92;4.85;;;7.70;99.90;;;;;;1915681;74;21130;-76
2021/03/28 03:50:57;;;;;;;25.17;5.47;;;7.70;99.90;;;;;;1873422;74;21156;-77
2021/03/28 03:53:43;;;;;;;19.62;4.90;;;7.70;99.90;;;;;;1878396;74;21086;-80
2021/03/28 03:56:31;;;;;;;18.35;4.47;;;7.80;99.90;;;;;;1913536;74;21209;-81
2021/03/28 03:59:31;;;;;;;20.00;4.75;;;7.80;99.90;;;;;;1836384;77;21634;-79
2021/03/28 04:02:04;;;;;;;19.50;4.40;;;7.80;99.90;;;;;;1913712;74;21632;-82
2021/03/28 04:04:46;;;;;;;20.23;5.08;;;7.90;99.90;;;;;;1917747;74;21065;-78
2021/03/28 04:07:18;;;;;;;;;;;7.90;99.90;;;;;;1918218;74;21037;-78
2021/03/28 04:10:05;;;;;;;23.45;4.70;;;7.80;99.90;;;;;;1915513;74;20177;-76
2021/03/28 04:12:47;;;;;;;14.45;4.60;;;7.70;99.90;;;;;;1913615;74;21393;-79
2021/03/28 04:15:41;;;;;;;21.10;5.17;;;7.70;99.90;;;;;;1915680;74;21088;-79
2021/03/28 04:18:14;;;;;;;19.85;4.53;;;7.70;99.90;;;;;;1913334;74;21132;-78
2021/03/28 04:21:07;;;;;;;19.05;4.20;;;7.70;99.90;;;;;;1914118;74;21112;-76
2021/03/28 04:23:37;;;;;;;20.88;5.22;;;7.90;99.90;;;;;;1921078;73;21152;-78
2021/03/28 04:26:29;;;;;;;25.62;4.58;;;7.90;99.90;;;;;;1915838;74;21121;-79
2021/03/28 04:28:59;;;;;;;20.17;5.30;;;7.90;99.90;;;;;;1914046;74;21162;-79
2021/03/28 04:31:44;;;;;;;20.12;4.62;;;7.90;99.90;;;;;;1916235;74;22082;-78
2021/03/28 04:34:15;;;;;;;27.17;5.28;;;7.90;99.90;;;;;;1918591;74;21129;-79
2021/03/28 04:37:20;;;;;;;21.57;4.67;;;8.10;99.90;;;;;;1909677;74;22169;-76
2021/03/28 04:40:09;;;;;;;18.27;4.83;;;8.10;99.90;;;;;;1912713;74;21101;-76
2021/03/28 04:43:10;;;;;;;21.35;5.00;;;8.10;99.90;;;;;;1906368;74;21144;-77
2021/03/28 04:46:03;;;;;;;21.65;5.33;;;8.00;99.90;;;;;;1823184;77;21206;-78
2021/03/28 04:48:56;;;;;;;19.17;5.17;;;7.80;99.90;;;;;;1831554;77;21211;-78
2021/03/28 04:51:38;;;;;;;19.30;5.37;;;7.60;99.90;;;;;;1877029;74;21179;-79
2021/03/28 04:54:21;;;;;;;20.00;4.67;;;7.50;99.90;;;;;;1893098;74;21125;-78
2021/03/28 04:57:10;;;;;;;21.42;4.95;;;7.40;99.90;;;;;;1895907;74;21104;-79
2021/03/28 04:59:43;;;;;;;18.70;5.08;;;7.40;99.90;;;;;;1891499;74;21199;-79
2021/03/28 05:02:29;;;;;;;24.90;4.90;;;7.40;99.90;;;;;;1891647;74;21133;-78
2021/03/28 05:05:08;;;;;;;21.30;5.42;;;7.50;99.90;;;;;;1896928;74;21684;-77
2021/03/28 05:08:15;;;;;;;23.35;4.72;;;7.50;99.90;;;;;;1886308;74;21570;-77
2021/03/28 05:11:06;;;;;;;17.80;4.53;;;7.50;99.90;;;;;;1892917;74;21623;-78
2021/03/28 05:14:04;;;;;;;25.27;5.33;;;7.60;99.90;;;;;;1893515;74;21141;-77
2021/03/28 05:17:04;;;;;;;23.07;5.55;;;7.60;99.90;;;;;;1890091;74;21203;-81
2021/03/28 05:19:51;;;;;;;22.62;5.12;;;7.70;99.90;;;;;;1894050;74;21195;-79
2021/03/28 05:22:51;;;;;;;19.87;5.67;;;7.60;99.90;;;;;;1895380;74;21115;-77
2021/03/28 05:25:33;;;;;;;17.15;5.00;;;7.60;99.90;;;;;;1886496;74;21161;-78
2021/03/28 05:28:20;;;;;;;21.00;5.28;;;7.50;99.90;;;;;;1893012;74;21069;-78
2021/03/28 05:31:19;;;;;;;20.72;5.25;;;7.50;99.90;;;;;;1887555;74;21717;-77
2021/03/28 05:34:07;;;;;;;16.42;5.40;;;7.60;99.90;;;;;;1888642;74;21145;-77
2021/03/28 05:37:04;;;;;;;21.33;4.87;;;7.60;99.90;;;;;;1891167;74;21623;-77
2021/03/28 05:39:58;;;;;;;18.10;5.55;;;7.70;99.90;;;;;;1896329;74;21146;-78
2021/03/28 05:42:43;;;;;;;20.60;5.05;;;7.70;99.90;;;;;;1891386;74;21595;-77
2021/03/28 05:45:29;;;;;;;19.80;5.25;;;7.70;99.90;;;;;;1897828;74;21117;-78
2021/03/28 05:48:18;;;;;;;25.95;6.03;;;7.70;99.90;;;;;;1889543;74;21071;-76
2021/03/28 05:51:05;;;;;;;16.07;4.95;;;7.80;99.90;;;;;;1896380;74;21077;-79
2021/03/28 05:54:01;;;;;;;21.00;5.58;;;7.90;99.90;;;;;;1890985;74;21150;-78
2021/03/28 05:56:48;;;;;;;18.87;5.62;;;7.90;99.90;;;;;;1887128;74;21110;-78
2021/03/28 05:59:50;;;;;;;17.82;5.28;;;7.90;99.90;;;;;;1886605;74;21627;-78
2021/03/28 06:02:30;;;;;;;18.35;5.10;;;7.80;99.90;;;;;;1820252;77;21328;-77
2021/03/28 06:05:17;;;;;;;20.50;5.83;;;7.80;99.90;;;;;;1881637;74;21067;-77
2021/03/28 06:08:07;;;;;;;18.37;6.17;;;7.80;99.90;;;;;;1890286;74;21685;-77
2021/03/28 06:10:57;;;;;;;21.00;5.70;;;7.90;99.90;;;;;;1889981;74;21165;-79
2021/03/28 06:13:40;;;;;;;19.00;5.83;;;7.90;99.90;;;;;;1866664;74;21633;-77
2021/03/28 06:16:25;;;;;;;19.23;5.45;;;7.90;99.90;;;;;;1894247;74;21121;-79
2021/03/28 06:19:21;;;;;;;25.62;6.42;;;8.00;99.90;;;;;;1894933;74;21117;-80
2021/03/28 06:22:10;;;;;;;20.00;5.55;;;8.00;99.90;;;;;;1887915;74;21160;-78
2021/03/28 06:25:09;;;;;;;23.22;6.58;;;8.10;99.90;;;;;;1897271;74;21090;-77
2021/03/28 06:27:56;;;;;;;17.95;5.30;;;8.10;99.90;;;;;;1893618;74;21113;-79
2021/03/28 06:30:43;;;;;;;24.95;6.30;;;8.10;99.90;;;;;;1891677;74;21054;-78
2021/03/28 06:33:30;;;;;;;22.37;5.80;;;8.10;99.90;;;;;;1894299;74;21294;-77
2021/03/28 06:36:24;;;;;;;21.02;6.22;;;8.10;99.90;;;;;;1891975;74;21312;-77
2021/03/28 06:38:56;;;;;;;19.40;5.75;;;8.10;99.90;;;;;;1890098;74;21125;-77
2021/03/28 06:41:45;;;;;;;17.67;5.35;;;8.20;99.90;;;;;;1892756;74;21090;-76
2021/03/28 06:44:33;;;;;;;16.48;5.60;;;8.30;99.90;;;;;;1869751;74;21223;-76
2021/03/28 06:47:21;;;;;;;22.48;6.40;;;8.30;99.90;;;;;;1884730;74;21106;-75
2021/03/28 06:50:07;;;;;;;20.60;5.87;;;8.20;99.90;;;;;;1896928;74;21164;-77
2021/03/28 06:52:40;;;;;;;20.02;6.25;;;8.20;99.90;;;;;;1895411;74;21203;-76
2021/03/28 06:55:42;;;;;;;20.20;6.20;;;8.20;99.90;;;;;;1887610;74;21498;-78
2021/03/28 06:58:29;;;;;;;25.05;6.10;;;8.30;99.90;;;;;;1887552;74;21121;-78
2021/03/28 07:01:12;;;;;;;18.25;5.45;;;8.40;99.90;;;;;;1893591;74;21705;-79
2021/03/28 07:04:16;;;;;;;17.95;5.67;;;8.30;99.90;;;;;;1890651;74;21130;-77
2021/03/28 07:07:01;;;;;;;16.50;5.35;;;8.50;99.90;;;;;;1892671;74;21230;-77
2021/03/28 07:09:54;;;;;;;24.35;6.97;;;8.50;99.90;;;;;;1886794;74;21607;-77
2021/03/28 07:12:25;;;;;;;20.52;6.40;;;8.60;99.90;;;;;;1891888;74;21117;-73
2021/03/28 07:15:02;;;;;;;27.13;6.47;;;8.80;99.90;;;;;;1897186;74;21560;-74
2021/03/28 07:17:52;;;;;;;16.73;5.00;;;8.90;99.90;;;;;;1881214;74;21325;-74
2021/03/28 07:20:34;;;;;;;20.45;5.15;;;8.80;99.90;;;;;;1887130;74;21265;-74
2021/03/28 07:23:26;;;;;;;24.52;6.87;;;8.80;99.90;;;;;;1896284;74;21239;-75
2021/03/28 07:26:08;;;;;;;20.60;5.75;;;8.80;99.90;;;;;;1864037;74;21176;-76
2021/03/28 07:29:02;;;;;;;18.80;5.42;;;8.90;99.90;;;;;;1897759;74;21157;-76
2021/03/28 07:31:50;;;;;;;19.37;5.65;;;9.00;99.90;;;;;;1892854;74;21100;-75
2021/03/28 07:34:40;;;;;;;17.55;5.35;;;9.10;99.90;;;;;;1894356;74;21146;-75
2021/03/28 07:37:40;;;;;;;16.62;5.05;;;9.00;99.90;;;;;;1896479;74;21223;-77
2021/03/28 07:40:27;;;;;;;21.62;5.97;;;9.10;99.90;;;;;;1892589;74;21157;-76
2021/03/28 07:45:47;;;;;;;21.20;5.58;;;9.40;99.90;;;;;;1863703;75;21302;-70
2021/03/28 07:48:45;;;;;;;17.77;5.33;;;9.50;99.90;;;;;;1868897;75;21351;-70
2021/03/28 07:51:27;;;;;;;25.57;5.10;;;9.60;99.90;;;;;;1825058;75;21101;-70
2021/03/28 07:54:29;;;;;;;25.60;5.42;;;9.60;99.90;;;;;;1862660;75;21160;-69
2021/03/28 07:57:29;;;;;;;16.48;4.20;;;9.60;99.90;;;;;;1858055;76;21591;-69
2021/03/28 08:00:22;;;;;;;19.80;5.30;;;9.60;99.90;;;;;;1903184;75;21146;-69
2021/03/28 08:03:11;;;;;;;16.75;4.22;;;9.60;99.90;;;;;;1897493;73;21655;-70
2021/03/28 08:06:13;;;;;;;15.63;4.87;;;9.80;99.90;;;;;;1841726;75;21174;-71
2021/03/28 08:08:49;;;;;;;21.55;4.40;;;9.90;99.90;;;;;;1899030;73;21059;-69
2021/03/28 08:11:36;;;;;;;16.20;4.83;;;9.80;99.90;;;;;;1901313;75;21128;-69
2021/03/28 08:14:09;;;;;;;19.52;4.78;;;9.80;99.90;;;;;;1901477;74;21232;-69
2021/03/28 08:16:40;;;;;;;20.15;4.65;;;9.80;99.90;;;;;;1897754;75;21109;-69
2021/03/28 08:19:34;;;;;;;17.87;4.35;;;9.90;99.90;;;;;;1824064;75;21670;-69
2021/03/28 08:22:38;;;;;;;16.52;4.62;;;10.00;99.90;;;;;;1902709;75;21196;-69
2021/03/28 08:25:23;;;;;;;20.72;4.12;;;10.10;99.90;;;;;;1897515;73;21232;-69
2021/03/28 08:31:22;;;;;;;15.20;4.70;;;10.10;99.90;;;;;;1806952;78;21117;-70
2021/03/28 08:34:12;;;;;;;16.52;4.28;;;10.10;99.90;;;;;;1808379;78;21537;-69
2021/03/28 08:36:58;;;;;;;25.43;4.28;;;10.20;99.90;;;;;;1856644;75;21158;-69
2021/03/28 08:39:34;;;;;;;15.70;3.90;;;10.30;99.90;;;;;;1871896;75;21052;-69
2021/03/28 08:42:30;;;;;;;13.55;3.87;;;10.40;99.90;;;;;;1808395;75;21683;-69
2021/03/28 08:45:17;;;;;;;18.70;4.50;;;10.40;99.90;;;;;;1868382;75;21102;-69
2021/03/28 08:48:10;;;;;;;18.35;4.35;;;10.60;99.90;;;;;;1878704;75;21114;-69
2021/03/28 08:50:56;;;;;;;14.68;3.85;;;10.60;99.90;;;;;;1869833;74;21064;-69
2021/03/28 08:53:42;;;;;;;15.00;4.22;;;10.70;99.90;;;;;;1876953;75;21255;-69
2021/03/28 08:56:28;;;;;;;14.83;4.28;;;10.80;99.90;;;;;;1877059;74;21086;-70
2021/03/28 08:59:01;;;;;;;12.68;3.70;;;10.80;99.90;;;;;;1795128;78;21168;-71
2021/03/28 09:01:38;;;;;;;15.03;4.15;;;10.80;99.90;;;;;;1862489;75;21099;-68
2021/03/28 09:04:15;;;;;;;17.65;4.37;;;10.90;99.90;;;;;;1862842;75;22138;-68
2021/03/28 09:07:03;;;;;;;12.43;3.67;;;10.90;99.90;;;;;;1866178;75;21129;-71
2021/03/28 09:09:53;;;;;;;14.00;3.20;;;11.00;99.90;;;;;;1864712;75;21123;-72
2021/03/28 09:12:41;;;;;;;14.85;4.25;;;11.00;99.90;;;;;;1868157;75;21658;-71
2021/03/28 09:15:28;;;;;;;11.95;3.67;;;11.20;99.90;;;;;;1853214;76;21647;-70
2021/03/28 09:18:33;;;;;;;12.10;3.22;;;11.20;99.90;;;;;;1850285;76;21097;-70
2021/03/28 09:21:23;;;;;;;19.32;4.00;;;11.30;99.90;;;;;;1851317;76;21120;-72
2021/03/28 09:23:56;;;;;;;14.23;3.62;;;11.50;99.90;;;;;;1847773;76;21146;-73
2021/03/28 09:26:30;;;;;;;10.58;2.67;;;11.60;99.90;;;;;;1843506;76;21122;-74
2021/03/28 09:29:33;;;;;;;13.53;3.20;;;11.70;99.90;;;;;;1847955;76;21114;-73
2021/03/28 09:32:16;;;;;;;15.60;3.40;;;11.80;99.90;;;;;;1842450;76;21197;-73
2021/03/28 09:34:49;;;;;;;20.40;3.60;;;11.70;99.90;;;;;;1846701;76;21184;-73
2021/03/28 09:37:23;;;;;;;12.70;3.15;;;11.60;99.90;;;;;;1849166;76;21130;-74
2021/03/28 09:39:59;;;;;;;18.48;3.55;;;11.70;99.90;;;;;;1831778;76;21128;-73
2021/03/28 09:42:54;;;;;;;14.55;3.60;;;11.70;99.90;;;;;;1845630;76;21731;-73
2021/03/28 09:45:27;;;;;;;11.25;2.95;;;11.60;99.90;;;;;;1852836;75;21172;-72
2021/03/28 09:48:00;;;;;;;19.23;3.60;;;11.60;99.90;;;;;;1845780;76;21106;-73
2021/03/28 09:51:03;;;;;;;16.32;3.58;;;11.60;99.90;;;;;;1849148;76;21191;-71
2021/03/28 09:53:50;;;;;;;18.37;3.10;;;11.60;99.90;;;;;;1871824;74;21194;-72
2021/03/28 09:56:52;;;;;;;16.62;3.30;;;11.60;99.90;;;;;;1843947;74;21244;-71
2021/03/28 09:59:48;;;;;;;14.45;3.35;;;11.70;99.90;;;;;;1871151;74;21174;-71
2021/03/28 10:02:39;;;;;;;16.07;3.65;;;11.80;99.90;;;;;;1879631;74;21030;-71
2021/03/28 10:05:27;;;;;;;16.95;3.72;;;11.70;99.90;;;;;;1880742;75;21145;-71
2021/03/28 10:08:10;;;;;;;15.60;3.90;;;11.70;99.90;;;;;;1872958;74;21107;-72
2021/03/28 10:11:14;;;;;;;13.60;3.12;;;11.80;99.90;;;;;;1883532;74;21161;-70
2021/03/28 10:14:06;;;;;;;12.45;3.77;;;12.00;99.90;;;;;;1876069;74;21166;-72
2021/03/28 10:16:45;;;;;;;15.85;3.50;;;12.10;99.90;;;;;;1877532;74;21107;-70
2021/03/28 10:19:24;;;;;;;12.45;3.15;;;12.10;99.90;;;;;;1872953;74;21126;-71
2021/03/28 10:22:28;;;;;;;19.25;3.65;;;12.30;99.90;;;;;;1880951;74;21149;-70
2021/03/28 10:25:18;;;;;;;12.70;3.47;;;12.50;99.90;;;;;;1870767;75;21118;-71
2021/03/28 10:28:00;;;;;;;13.98;3.60;;;12.60;99.90;;;;;;1869747;75;21083;-72
2021/03/28 10:30:36;;;;;;;13.62;3.08;;;12.70;99.90;;;;;;1791369;76;21141;-71
2021/03/28 10:33:25;;;;;;;12.55;3.12;;;12.60;99.90;;;;;;1865793;75;21103;-68
2021/03/28 10:36:01;;;;;;;13.15;3.33;;;12.80;99.90;;;;;;1866551;75;21118;-71
2021/03/28 10:38:49;;;;;;;15.20;3.12;;;13.00;99.90;;;;;;1869516;75;21082;-71
2021/03/28 10:41:35;;;;;;;19.37;3.92;;;13.00;99.90;;;;;;1865101;75;21144;-71
2021/03/28 10:44:22;;;;;;;14.28;3.35;;;13.20;99.90;;;;;;1867003;75;21240;-70
2021/03/28 10:47:22;;;;;;;15.50;3.42;;;13.10;99.90;;;;;;1868935;75;21110;-70
2021/03/28 10:50:04;;;;;;;14.75;3.52;;;13.00;99.90;;;;;;1864535;75;21122;-70
2021/03/28 10:52:43;;;;;;;15.20;3.72;;;13.00;99.90;;;;;;1868330;75;21257;-71
2021/03/28 10:55:20;;;;;;;11.63;2.92;;;12.80;99.90;;;;;;1868602;75;21867;-72
2021/03/28 10:58:10;;;;;;;20.52;3.62;;;12.90;99.90;;;;;;1869496;75;21148;-71
2021/03/28 11:00:48;;;;;;;20.17;3.83;;;12.90;99.90;;;;;;1870264;75;21122;-69
2021/03/28 11:03:39;;;;;;;15.70;3.45;;;12.90;99.90;;;;;;1868294;75;21165;-71
2021/03/28 11:06:13;;;;;;;18.50;4.23;;;12.80;99.90;;;;;;1870075;75;21211;-71
2021/03/28 11:09:06;;;;;;;12.50;3.22;;;13.00;99.90;;;;;;1867409;75;21744;-72
2021/03/28 11:11:45;;;;;;;15.00;3.40;;;13.00;99.90;;;;;;1868796;75;21200;-71
2021/03/28 11:14:22;;;;;;;12.73;3.42;;;13.00;99.90;;;;;;1861958;75;21270;-70
2021/03/28 11:17:09;;;;;;;15.35;3.12;;;12.90;99.90;;;;;;1863858;75;21087;-71
2021/03/28 11:19:58;;;;;;;14.23;3.55;;;13.10;99.90;;;;;;1870706;75;21107;-70
2021/03/28 11:22:37;;;;;;;14.03;3.70;;;13.30;99.90;;;;;;1862230;75;21078;-71
2021/03/28 11:25:23;;;;;;;14.00;3.83;;;13.50;99.90;;;;;;1870081;75;21139;-71
2021/03/28 11:28:11;;;;;;;14.50;3.00;;;13.40;99.90;;;;;;1866907;75;21490;-71
2021/03/28 11:30:45;;;;;;;17.52;3.45;;;13.40;99.90;;;;;;1868160;75;21243;-72
2021/03/28 11:33:32;;;;;;;12.93;3.30;;;13.40;99.90;;;;;;1864396;75;21239;-71
2021/03/28 11:36:05;;;;;;;13.30;3.30;;;13.60;99.90;;;;;;1868111;75;21586;-72
2021/03/28 11:38:36;;;;;;;13.32;3.20;;;13.60;99.90;;;;;;1874102;75;21052;-75
2021/03/28 11:41:15;;;;;;;10.35;3.10;;;13.60;99.90;;;;;;1868826;75;21450;-75
2021/03/28 11:43:49;;;;;;;11.90;3.45;;;13.40;99.90;;;;;;1873535;75;21119;-75
2021/03/28 11:46:37;;;;;;;19.92;4.42;;;13.50;99.90;;;;;;1865199;75;21205;-75
2021/03/28 11:49:08;;;;;;;14.73;4.17;;;13.60;99.90;;;;;;1867680;75;21170;-73
2021/03/28 11:51:38;;;;;;;27.82;6.17;;;13.50;99.90;;;;;;1871400;75;21580;-73
2021/03/28 11:54:12;;;;;;;18.15;4.65;;;13.50;99.90;;;;;;1869273;75;21608;-72
2021/03/28 11:56:52;;;;;;;11.30;2.75;;;13.30;99.90;;;;;;1872266;75;21583;-72
2021/03/28 11:59:24;;;;;;;18.82;3.60;;;13.40;99.90;;;;;;1867474;75;21128;-72
2021/03/28 12:02:03;;;;;;;12.82;3.10;;;13.30;99.90;;;;;;1865178;75;21135;-70
2021/03/28 12:04:42;;;;;;;9.85;3.25;;;13.50;99.90;;;;;;1871345;75;21111;-71
2021/03/28 12:07:22;;;;;;;11.53;3.55;;;13.20;99.90;;;;;;1880108;74;21081;-71
2021/03/28 12:10:02;;;;;;;11.88;2.92;;;13.20;99.90;;;;;;1873612;75;21107;-71
2021/03/28 12:12:42;;;;;;;10.50;3.00;;;13.40;99.90;;;;;;1821459;77;21694;-72
2021/03/28 12:15:44;;;;;;;10.38;3.02;;;13.40;99.90;;;;;;1840449;76;21169;-71
2021/03/28 12:18:28;;;;;;;9.80;3.45;;;13.40;99.90;;;;;;1841351;76;21126;-70
2021/03/28 12:21:05;;;;;;;14.00;3.55;;;13.30;99.90;;;;;;1848964;76;21130;-71
2021/03/28 12:23:50;;;;;;;12.78;3.10;;;13.30;99.90;;;;;;1850726;76;21216;-71
2021/03/28 12:26:29;;;;;;;11.48;2.95;;;13.30;99.90;;;;;;1847574;76;21224;-71
2021/03/28 12:29:02;;;;;;;9.00;3.02;;;13.20;99.90;;;;;;1853771;76;21248;-69
2021/03/28 12:31:35;;;;;;;12.82;3.37;;;13.30;99.90;;;;;;1842378;76;21150;-72
2021/03/28 12:34:34;;;;;;;10.10;2.90;;;13.20;99.90;;;;;;1851568;76;21162;-73
2021/03/28 12:37:14;;;;;;;13.38;3.85;;;13.20;99.90;;;;;;1847230;76;21240;-70
2021/03/28 12:39:45;;;;;;;16.23;4.40;;;13.30;99.90;;;;;;1850783;76;21674;-71
2021/03/28 12:42:21;;;;;;;14.05;3.25;;;13.10;99.90;;;;;;1879174;74;21667;-71
2021/03/28 12:45:04;;;;;;;30.12;8.63;;;13.00;99.90;;;;;;1831642;77;21042;-71
2021/03/28 12:47:31;;;;;;;12.85;3.22;;;12.90;99.90;;;;;;1873596;74;21486;-71
2021/03/28 12:50:06;;;;;;;14.83;3.10;;;13.10;99.90;;;;;;1873260;75;21797;-71
2021/03/28 12:52:39;;;;;;;12.25;3.47;;;13.20;99.90;;;;;;1867821;75;21055;-71
2021/03/28 12:55:26;;;;;;;18.25;3.92;;;13.30;99.90;;;;;;1870218;74;21128;-70
2021/03/28 12:57:59;;;;;;;16.10;3.02;;;13.40;99.90;;;;;;1844278;76;21108;-71
2021/03/28 13:00:39;;;;;;;12.82;3.60;;;13.40;99.90;;;;;;1842211;76;21069;-72
2021/03/28 13:03:34;;;;;;;10.72;3.20;;;13.50;99.90;;;;;;1871201;74;21620;-70
2021/03/28 13:06:05;;;;;;;14.05;3.02;;;13.40;99.90;;;;;;1840940;76;21145;-69
2021/03/28 13:08:36;;;;;;;18.60;3.60;;;13.40;99.90;;;;;;1839038;76;21057;-71
2021/03/28 13:11:05;;;;;;;14.23;3.00;;;13.40;99.90;;;;;;1878450;74;21086;-71
2021/03/28 13:13:36;;;;;;;10.30;3.33;;;13.30;99.90;;;;;;1830101;76;21575;-71
2021/03/28 13:16:03;;;;;;;13.28;3.35;;;13.30;99.90;;;;;;1869063;75;21118;-71
2021/03/28 13:18:47;;;;;;;13.95;3.50;;;13.30;99.90;;;;;;1869429;75;21558;-70
2021/03/28 13:21:23;;;;;;;11.53;3.50;;;13.30;99.90;;;;;;1869726;75;21107;-69
2021/03/28 13:24:10;;;;;;;13.03;3.60;;;13.30;99.90;;;;;;1870125;75;21169;-70
2021/03/28 13:26:40;;;;;;;13.70;3.30;;;13.30;99.90;;;;;;1868920;75;21115;-70
2021/03/28 13:29:22;;;;;;;11.73;3.37;;;13.30;99.90;;;;;;1863677;75;21114;-71
2021/03/28 13:31:57;;;;;;;13.43;3.85;;;13.30;99.90;;;;;;1865642;75;21189;-70
2021/03/28 13:34:53;;;;;;;15.53;3.35;;;13.40;99.90;;;;;;1870006;75;21591;-70
2021/03/28 13:37:27;;;;;;;17.73;3.58;;;13.40;99.90;;;;;;1872365;75;21119;-69
2021/03/28 13:40:06;;;;;;;11.63;3.35;;;13.30;99.90;;;;;;1869903;75;21152;-71
2021/03/28 13:42:40;;;;;;;12.65;3.60;;;13.30;99.90;;;;;;1874116;75;21149;-70
2021/03/28 13:45:22;;;;;;;14.68;3.83;;;13.30;99.90;;;;;;1824949;74;21152;-73
2021/03/28 13:48:11;;;;;;;16.45;4.30;;;13.40;99.90;;;;;;1826551;77;21171;-73
2021/03/28 13:51:01;;;;;;;14.25;3.75;;;13.30;99.90;;;;;;1871073;75;21148;-73
2021/03/28 13:53:43;;;;;;;13.72;3.95;;;13.30;99.90;;;;;;1862206;75;21163;-73
2021/03/28 13:56:25;;;;;;;16.05;3.67;;;13.30;99.90;;;;;;1804666;75;21190;-73
2021/03/28 13:59:03;;;;;;;;;;;13.30;99.90;;;;;;1869342;75;21084;-73
2021/03/28 14:01:36;;;;;;;14.03;4.35;;;13.30;99.90;;;;;;1871592;75;20235;-73
2021/03/28 14:04:23;;;;;;;17.00;4.17;;;13.20;99.90;;;;;;1866669;75;21690;-70
2021/03/28 14:07:03;;;;;;;15.55;4.35;;;13.10;99.90;;;;;;1859951;75;21120;-71
2021/03/28 14:09:36;;;;;;;19.05;3.72;;;13.00;99.90;;;;;;1836891;75;21589;-72
2021/03/28 14:12:07;;;;;;;14.38;3.95;;;13.10;99.90;;;;;;1871792;75;21523;-70
2021/03/28 14:14:41;;;;;;;11.90;4.05;;;12.90;99.90;;;;;;1872142;75;21101;-69